Time;durP1;ratioP1;P1;durP2;ratioP2;P2;SDS_P1;SDS_P2;PMS_P1;PMS_P2;Temp;Humidity;BMP_temperature;BMP_pressure;BME280_temperature;BME280_humidity;BME280_pressure;Samples;Min_cycle;Max_cycle;Signal;HPM_P1;HPM_P2
2022/08/24 00:00:17;;;;;;;5.68;5.20;;;12.70;99.90;;;;;;4820963;29;20058;-81
2022/08/24 00:02:46;;;;;;;5.35;4.43;;;12.70;99.90;;;;;;4834557;29;20046;-81
2022/08/24 00:05:14;;;;;;;5.60;5.20;;;12.70;99.90;;;;;;4819677;29;20137;-81
2022/08/24 00:07:41;;;;;;;5.78;5.22;;;12.70;99.90;;;;;;4820600;29;20069;-81
2022/08/24 00:10:10;;;;;;;10.25;4.13;;;12.70;99.90;;;;;;4849871;29;20058;-81
2022/08/24 00:12:39;;;;;;;4.30;3.90;;;12.50;99.90;;;;;;4835271;29;20610;-84
2022/08/24 00:15:08;;;;;;;7.25;5.50;;;12.40;99.90;;;;;;4819437;29;20055;-84
2022/08/24 00:17:36;;;;;;;7.47;4.20;;;12.30;99.90;;;;;;4848991;29;20046;-84
2022/08/24 00:20:05;;;;;;;4.85;4.45;;;12.30;99.90;;;;;;4848594;29;20042;-84
2022/08/24 00:22:33;;;;;;;5.20;4.72;;;12.30;99.90;;;;;;4849328;29;20057;-84
2022/08/24 00:25:01;;;;;;;7.75;5.45;;;12.40;99.90;;;;;;4849384;29;20065;-84
2022/08/24 00:27:28;;;;;;;6.10;5.60;;;12.50;99.90;;;;;;4834484;29;20069;-83
2022/08/24 00:29:56;;;;;;;5.13;4.78;;;12.50;99.90;;;;;;4833553;29;20512;-83
2022/08/24 00:32:24;;;;;;;11.00;5.68;;;12.60;99.90;;;;;;4834271;29;20400;-83
2022/08/24 00:34:52;;;;;;;6.47;5.72;;;12.60;99.90;;;;;;4834311;29;20397;-83
2022/08/24 00:37:26;;;;;;;5.35;4.82;;;12.60;99.90;;;;;;4833470;29;20054;-83
2022/08/24 00:39:54;;;;;;;6.20;5.15;;;12.60;99.90;;;;;;4834206;29;20050;-83
2022/08/24 00:42:23;;;;;;;6.25;5.70;;;12.60;99.90;;;;;;4848978;29;20046;-83
2022/08/24 00:44:51;;;;;;;5.93;5.43;;;12.70;99.90;;;;;;4849661;29;20054;-81
2022/08/24 00:47:32;;;;;;;6.63;4.95;;;12.70;99.90;;;;;;4833768;29;20066;-80
2022/08/24 00:50:08;;;;;;;6.53;4.72;;;12.80;99.90;;;;;;4849131;29;20070;-81
2022/08/24 00:52:51;;;;;;;4.60;4.20;;;12.80;99.90;;;;;;4820089;29;20069;-81
2022/08/24 00:55:25;;;;;;;7.18;4.85;;;12.70;99.90;;;;;;4849023;29;20120;-81
2022/08/24 00:58:00;;;;;;;6.45;5.85;;;12.70;99.90;;;;;;4833738;29;20899;-81
2022/08/24 01:00:33;;;;;;;5.32;4.85;;;12.70;99.90;;;;;;4834097;29;20050;-81
2022/08/24 01:03:04;;;;;;;5.63;5.03;;;12.60;99.90;;;;;;4818795;29;20606;-81
2022/08/24 01:05:35;;;;;;;6.22;5.43;;;12.50;99.90;;;;;;4833505;29;20042;-81
2022/08/24 01:08:05;;;;;;;5.50;5.00;;;12.50;99.90;;;;;;4833492;29;20058;-81
2022/08/24 01:10:40;;;;;;;10.75;5.60;;;12.50;99.90;;;;;;4833136;29;20081;-81
2022/08/24 01:13:10;;;;;;;5.78;5.30;;;12.60;99.90;;;;;;4833538;29;20058;-81
2022/08/24 01:15:42;;;;;;;5.18;4.78;;;12.70;99.90;;;;;;4820257;29;20452;-82
2022/08/24 01:21:04;;;;;;;5.68;5.18;;;12.40;99.90;;;;;;4833677;29;20058;-81
2022/08/24 01:23:45;;;;;;;5.85;5.35;;;12.30;99.90;;;;;;4847957;29;20057;-81
2022/08/24 01:26:19;;;;;;;6.05;5.53;;;12.20;99.90;;;;;;4830447;29;20047;-81
2022/08/24 01:28:54;;;;;;;6.18;5.68;;;12.20;99.90;;;;;;4801763;29;20058;-82
2022/08/24 01:31:23;;;;;;;7.25;6.55;;;12.40;99.90;;;;;;4816328;29;20051;-81
2022/08/24 01:33:53;;;;;;;6.50;5.88;;;12.40;99.90;;;;;;4803540;29;20062;-81
2022/08/24 01:36:20;;;;;;;7.22;6.53;;;12.40;99.90;;;;;;4804081;29;20524;-81
2022/08/24 01:38:59;;;;;;;5.88;5.38;;;12.40;99.90;;;;;;4802188;29;20416;-82
2022/08/24 01:41:27;;;;;;;7.63;5.68;;;12.50;99.90;;;;;;4803408;29;20058;-81
2022/08/24 01:43:57;;;;;;;5.90;5.35;;;12.50;99.90;;;;;;4803611;29;20059;-81
2022/08/24 01:46:27;;;;;;;7.28;5.55;;;12.50;99.90;;;;;;4803729;29;20121;-81
2022/08/24 01:48:59;;;;;;;6.85;6.20;;;12.40;99.90;;;;;;4818386;29;20054;-82
2022/08/24 01:51:32;;;;;;;9.35;5.97;;;12.40;99.90;;;;;;4833426;29;20051;-82
2022/08/24 01:54:01;;;;;;;6.55;6.05;;;12.40;99.90;;;;;;4816476;29;20075;-81
2022/08/24 01:56:31;;;;;;;10.93;9.02;;;12.50;99.90;;;;;;4819028;29;20513;-81
2022/08/24 01:59:00;;;;;;;7.40;6.72;;;12.60;99.90;;;;;;4801864;29;20389;-81
2022/08/24 02:01:31;;;;;;;7.05;6.45;;;12.70;99.90;;;;;;4817357;29;20047;-82
2022/08/24 02:04:01;;;;;;;7.63;5.28;;;12.70;99.90;;;;;;4786969;30;20059;-81
2022/08/24 02:06:31;;;;;;;5.78;5.28;;;12.50;99.90;;;;;;4803466;29;20072;-82
2022/08/24 02:08:59;;;;;;;7.07;6.38;;;12.40;99.90;;;;;;4832395;29;20130;-82
2022/08/24 02:11:27;;;;;;;7.00;6.30;;;12.40;99.90;;;;;;4833506;29;20062;-81
2022/08/24 02:13:59;;;;;;;6.25;5.65;;;12.40;99.90;;;;;;4822675;29;20519;-82
2022/08/24 02:16:28;;;;;;;10.82;7.80;;;12.40;99.90;;;;;;4806174;29;20412;-82
2022/08/24 02:18:56;;;;;;;8.40;7.50;;;12.40;99.90;;;;;;4820796;29;20055;-81
2022/08/24 02:21:24;;;;;;;7.40;6.70;;;12.50;99.90;;;;;;4802060;29;20058;-82
2022/08/24 02:23:52;;;;;;;7.13;6.28;;;12.50;99.90;;;;;;4834123;29;20054;-82
2022/08/24 02:26:20;;;;;;;6.20;5.60;;;12.50;99.90;;;;;;4823361;29;20053;-82
2022/08/24 02:28:48;;;;;;;7.47;6.68;;;12.60;99.90;;;;;;4838647;29;20050;-82
2022/08/24 02:31:17;;;;;;;7.28;6.53;;;12.50;99.90;;;;;;4844237;29;20412;-81
2022/08/24 02:33:45;;;;;;;5.38;4.88;;;12.60;99.90;;;;;;4838415;29;20531;-82
2022/08/24 02:36:14;;;;;;;7.07;6.10;;;12.50;99.90;;;;;;4838865;29;20058;-82
2022/08/24 02:38:59;;;;;;;4.18;3.85;;;12.40;99.90;;;;;;4837719;29;20049;-82
2022/08/24 02:41:27;;;;;;;;;;;12.30;99.90;;;;;;4853740;29;20053;-82
2022/08/24 02:44:02;;;;;;;5.93;5.28;;;12.20;99.90;;;;;;4828574;29;19936;-82
2022/08/24 02:46:30;;;;;;;6.93;5.45;;;12.20;99.90;;;;;;4808333;29;20073;-82
2022/08/24 02:49:01;;;;;;;6.43;5.88;;;12.20;99.90;;;;;;4822128;29;20894;-82
2022/08/24 02:51:44;;;;;;;5.45;4.93;;;12.20;99.90;;;;;;4839319;29;20062;-82
2022/08/24 02:54:18;;;;;;;5.82;5.30;;;12.10;99.90;;;;;;4823255;29;20053;-82
2022/08/24 02:56:48;;;;;;;8.70;4.82;;;11.90;99.90;;;;;;4824044;29;20057;-82
2022/08/24 02:59:26;;;;;;;5.13;4.65;;;11.80;99.90;;;;;;4838621;29;20050;-82
2022/08/24 03:02:09;;;;;;;6.18;4.88;;;11.70;99.90;;;;;;4838177;29;20057;-82
2022/08/24 03:05:13;;;;;;;7.68;6.93;;;11.50;99.90;;;;;;4838640;29;20065;-82
2022/08/24 03:08:00;;;;;;;6.28;5.68;;;11.60;99.90;;;;;;4837162;29;20408;-82
2022/08/24 03:10:48;;;;;;;4.85;4.40;;;11.70;99.90;;;;;;4817404;29;20047;-82
2022/08/24 03:13:45;;;;;;;5.53;5.03;;;11.80;99.90;;;;;;4776865;29;20047;-82
2022/08/24 03:16:58;;;;;;;6.43;5.82;;;11.80;99.90;;;;;;4760981;30;20094;-82
2022/08/24 03:20:18;;;;;;;6.03;5.50;;;11.60;99.90;;;;;;4791173;29;20063;-82
2022/08/24 03:23:32;;;;;;;3.65;3.35;;;11.50;99.90;;;;;;4773131;29;20522;-81
2022/08/24 03:40:11;;;;;;;6.63;5.88;;;11.30;99.90;;;;;;4720485;30;20056;-84
2022/08/24 03:49:34;;;;;;;7.78;6.90;;;11.50;99.90;;;;;;4764212;30;20410;-83
2022/08/24 03:53:42;;;;;;;6.65;5.28;;;11.50;99.90;;;;;;4700941;30;20067;-83
2022/08/24 03:58:29;;;;;;;;;;;;;;;;;;;;;
2022/08/24 04:11:49;;;;;;;7.85;6.20;;;11.60;99.90;;;;;;4728059;30;20055;-83
2022/08/24 04:15:04;;;;;;;6.40;5.90;;;11.50;99.90;;;;;;4734306;30;20051;-83
2022/08/24 04:17:38;;;;;;;7.28;5.50;;;11.50;99.90;;;;;;4773403;29;20051;-85
2022/08/24 04:20:15;;;;;;;6.70;5.75;;;11.60;99.90;;;;;;4806703;29;20838;-85
2022/08/24 04:23:07;;;;;;;6.22;5.43;;;11.60;99.90;;;;;;4804944;29;20051;-85
2022/08/24 04:26:17;;;;;;;;;;;;;;;;;;;;;
2022/08/24 04:29:33;;;;;;;8.80;5.47;;;11.60;99.90;;;;;;4720623;30;20040;-85
2022/08/24 04:33:16;;;;;;;5.95;5.45;;;11.60;99.90;;;;;;4713496;30;20108;-85
2022/08/24 04:43:49;;;;;;;;;;;;;;;;;;;;;
2022/08/24 04:48:26;;;;;;;4.75;4.35;;;11.30;99.90;;;;;;4665531;30;20080;-82
2022/08/24 04:53:07;;;;;;;5.55;4.70;;;11.30;99.90;;;;;;4679407;30;20066;-83
2022/08/24 05:00:59;;;;;;;4.60;4.20;;;11.40;99.90;;;;;;4798518;29;21888;-85
2022/08/24 05:03:37;;;;;;;4.97;4.57;;;11.50;99.90;;;;;;4786510;29;20063;-85
2022/08/24 05:06:24;;;;;;;8.07;5.57;;;11.50;99.90;;;;;;4796203;29;20059;-83
2022/08/24 05:08:56;;;;;;;6.25;5.32;;;11.50;99.90;;;;;;4800643;29;20639;-85
2022/08/24 05:11:56;;;;;;;5.60;4.90;;;11.60;99.90;;;;;;4798615;29;20539;-85
2022/08/24 05:14:46;;;;;;;5.10;4.70;;;11.70;99.90;;;;;;4804706;29;20047;-81
2022/08/24 05:28:31;;;;;;;;;;;;;;;;;;;;;
2022/08/24 05:32:59;;;;;;;7.60;4.22;;;12.30;99.90;;;;;;4800137;29;22135;-82
2022/08/24 05:36:19;;;;;;;9.23;4.55;;;12.50;99.90;;;;;;4720430;29;20064;-83
2022/08/24 05:42:28;;;;;;;16.38;5.82;;;12.90;99.90;;;;;;4792637;29;20050;-82
2022/08/24 05:45:40;;;;;;;6.95;5.07;;;13.10;99.90;;;;;;4820319;29;20656;-82
2022/08/24 05:48:10;;;;;;;6.78;5.47;;;13.40;99.90;;;;;;4814197;29;20062;-82
2022/08/24 05:50:57;;;;;;;6.15;4.68;;;13.60;99.90;;;;;;4819651;29;20058;-79
2022/08/24 05:53:29;;;;;;;5.22;4.82;;;13.90;99.90;;;;;;4815584;29;20416;-79
2022/08/24 05:56:05;;;;;;;5.38;4.88;;;14.10;99.90;;;;;;4828267;29;20144;-83
2022/08/24 05:58:36;;;;;;;5.43;5.03;;;14.30;99.90;;;;;;4853556;29;20767;-83
2022/08/24 06:01:07;;;;;;;4.50;4.18;;;14.40;99.90;;;;;;4840051;29;20061;-83
2022/08/24 06:03:36;;;;;;;5.60;5.13;;;14.50;99.90;;;;;;4839448;29;20054;-83
2022/08/24 06:06:07;;;;;;;5.75;5.25;;;14.70;99.90;;;;;;4851593;29;20817;-83
2022/08/24 06:08:39;;;;;;;5.80;5.40;;;14.90;99.90;;;;;;4835712;29;20492;-83
2022/08/24 06:11:12;;;;;;;7.28;6.68;;;15.00;99.90;;;;;;4851511;29;20053;-83
2022/08/24 06:13:39;;;;;;;5.63;5.13;;;15.20;99.90;;;;;;4857813;29;20054;-82
2022/08/24 06:16:11;;;;;;;5.30;4.88;;;15.40;99.90;;;;;;4832940;29;20053;-82
2022/08/24 06:18:54;;;;;;;5.15;4.75;;;15.50;99.90;;;;;;4835023;29;20045;-83
2022/08/24 06:21:25;;;;;;;4.78;4.38;;;15.70;99.90;;;;;;4854126;29;20537;-82
2022/08/24 06:23:56;;;;;;;4.30;3.90;;;15.90;99.90;;;;;;4835286;29;20061;-82
2022/08/24 06:29:15;;;;;;;11.82;4.28;;;16.20;99.90;;;;;;4835902;29;20080;-82
2022/08/24 06:31:47;;;;;;;5.00;4.55;;;16.40;99.90;;;;;;4841913;29;20054;-82
2022/08/24 06:34:23;;;;;;;5.28;4.60;;;16.50;99.90;;;;;;4838843;29;20057;-82
2022/08/24 06:36:51;;;;;;;5.25;4.85;;;16.50;99.90;;;;;;4854952;29;20052;-82
2022/08/24 06:39:22;;;;;;;4.32;4.03;;;16.50;99.90;;;;;;4845612;29;20054;-82
2022/08/24 06:41:53;;;;;;;7.25;4.30;;;16.60;99.90;;;;;;4842512;29;20061;-83
2022/08/24 06:44:36;;;;;;;4.65;4.32;;;16.60;99.90;;;;;;4855373;29;20128;-82
2022/08/24 06:47:16;;;;;;;6.10;5.43;;;16.70;99.90;;;;;;4838874;29;20590;-82
2022/08/24 06:49:44;;;;;;;5.18;4.75;;;16.70;99.90;;;;;;4853756;29;20046;-82
2022/08/24 06:52:13;;;;;;;4.85;4.05;;;16.60;99.90;;;;;;4861740;29;20054;-82
2022/08/24 06:54:41;;;;;;;5.53;5.03;;;16.70;99.90;;;;;;4857144;29;20049;-82
2022/08/24 06:57:09;;;;;;;5.22;4.57;;;16.80;99.90;;;;;;4838622;29;20785;-82
2022/08/24 06:59:41;;;;;;;5.35;4.95;;;16.80;99.90;;;;;;4850078;29;20057;-82
2022/08/24 07:02:11;;;;;;;6.00;4.55;;;16.90;99.90;;;;;;4848841;29;20058;-83
2022/08/24 07:04:40;;;;;;;10.73;5.50;;;17.00;99.90;;;;;;4838531;29;20431;-82
2022/08/24 07:07:26;;;;;;;6.75;5.00;;;16.90;99.90;;;;;;4847342;29;20050;-83
2022/08/24 07:09:54;;;;;;;5.53;5.10;;;16.90;99.90;;;;;;4862251;29;20057;-82
2022/08/24 07:12:22;;;;;;;7.15;4.30;;;16.90;99.90;;;;;;4855835;29;20415;-81
2022/08/24 07:15:03;;;;;;;4.95;4.50;;;17.00;99.90;;;;;;4854542;29;20050;-81
2022/08/24 07:17:44;;;;;;;6.35;5.85;;;17.10;99.90;;;;;;4835096;29;20412;-82
2022/08/24 07:20:13;;;;;;;6.28;5.68;;;17.30;99.90;;;;;;4832502;29;20472;-82
2022/08/24 07:23:00;;;;;;;5.30;4.85;;;17.30;99.90;;;;;;4825276;29;20072;-82
2022/08/24 07:25:32;;;;;;;4.88;4.43;;;17.10;99.90;;;;;;4837839;29;20759;-82
2022/08/24 07:28:02;;;;;;;5.57;5.10;;;17.10;99.90;;;;;;4841714;29;20057;-82
2022/08/24 07:30:39;;;;;;;4.32;4.03;;;17.30;99.90;;;;;;4838000;29;20058;-82
2022/08/24 07:33:07;;;;;;;5.00;4.40;;;17.40;99.90;;;;;;4838002;29;20463;-83
2022/08/24 07:35:39;;;;;;;4.65;4.25;;;17.40;99.90;;;;;;4852896;29;20057;-81
2022/08/24 07:38:07;;;;;;;5.50;5.03;;;17.50;99.90;;;;;;4829788;29;20408;-81
2022/08/24 07:40:35;;;;;;;4.90;4.50;;;17.70;99.90;;;;;;4845760;29;20061;-82
2022/08/24 07:43:29;;;;;;;4.60;4.15;;;17.70;99.90;;;;;;4816768;29;20065;-83
2022/08/24 07:45:58;;;;;;;5.70;5.22;;;17.70;99.90;;;;;;4845531;29;20519;-80
2022/08/24 07:48:27;;;;;;;6.55;6.05;;;17.90;99.90;;;;;;4853720;29;20050;-81
2022/08/24 07:51:04;;;;;;;5.20;4.60;;;17.80;99.90;;;;;;4840879;29;20065;-82
2022/08/24 07:53:34;;;;;;;4.95;4.55;;;18.40;99.90;;;;;;4828921;29;20050;-80
2022/08/24 07:56:21;;;;;;;5.50;5.00;;;19.10;99.90;;;;;;4837366;29;20079;-80
2022/08/24 07:58:49;;;;;;;5.22;4.32;;;19.10;99.90;;;;;;4850619;29;20068;-80
2022/08/24 08:01:22;;;;;;;6.13;5.68;;;18.90;99.90;;;;;;4851884;29;20046;-79
2022/08/24 08:03:50;;;;;;;9.70;6.30;;;18.90;99.90;;;;;;4843453;29;20057;-82
2022/08/24 08:06:18;;;;;;;7.47;5.00;;;19.00;99.90;;;;;;4858105;29;20495;-80
2022/08/24 08:08:49;;;;;;;5.05;4.47;;;19.00;99.90;;;;;;4836330;29;20054;-80
2022/08/24 08:11:20;;;;;;;6.13;5.63;;;19.30;99.90;;;;;;4851996;29;20061;-84
2022/08/24 08:13:54;;;;;;;5.53;4.90;;;19.40;99.90;;;;;;4840565;29;20818;-84
2022/08/24 08:16:23;;;;;;;8.48;5.47;;;19.50;99.90;;;;;;4845298;29;20792;-83
2022/08/24 08:26:37;;;;;;;9.38;6.28;;;19.60;99.90;;;;;;4862659;29;20076;-86
2022/08/24 08:30:05;;;;;;;5.00;4.38;;;19.60;99.90;;;;;;4757491;29;20061;-84
2022/08/24 08:32:42;;;;;;;6.10;4.80;;;19.60;99.90;;;;;;4787541;29;20065;-83
2022/08/24 08:35:10;;;;;;;5.57;5.15;;;19.70;99.90;;;;;;4798100;29;20071;-83
2022/08/24 08:37:39;;;;;;;5.72;5.20;;;19.80;99.90;;;;;;4785495;29;20042;-86
2022/08/24 08:40:17;;;;;;;6.05;5.45;;;19.80;99.90;;;;;;4798653;29;20060;-82
2022/08/24 08:43:12;;;;;;;7.10;6.32;;;19.80;99.90;;;;;;4876614;29;20379;-83
2022/08/24 08:45:57;;;;;;;4.70;4.30;;;19.80;99.90;;;;;;4851848;29;20417;-81
2022/08/24 08:48:56;;;;;;;5.82;5.18;;;19.80;99.90;;;;;;4909358;29;20052;-81
2022/08/24 08:51:45;;;;;;;5.47;5.05;;;19.80;99.90;;;;;;4895261;29;20056;-82
2022/08/24 08:54:39;;;;;;;7.47;5.63;;;19.70;99.90;;;;;;4895846;29;20051;-82
2022/08/24 08:57:21;;;;;;;6.97;5.78;;;19.80;99.90;;;;;;4900699;29;20312;-82
2022/08/24 09:00:06;;;;;;;6.65;6.05;;;19.90;99.90;;;;;;4895420;29;20048;-82
2022/08/24 09:02:57;;;;;;;5.10;4.32;;;20.00;99.90;;;;;;4895131;29;20071;-83
2022/08/24 09:05:42;;;;;;;6.20;5.60;;;20.20;99.90;;;;;;4901054;29;20846;-82
2022/08/24 09:08:37;;;;;;;5.38;3.50;;;20.20;99.90;;;;;;4880327;29;20083;-82
2022/08/24 09:11:22;;;;;;;6.82;5.32;;;20.30;99.90;;;;;;4901010;29;20137;-82
2022/08/24 09:14:28;;;;;;;5.38;4.93;;;20.40;99.90;;;;;;4905377;29;20138;-83
2022/08/24 09:17:15;;;;;;;4.50;4.10;;;20.50;99.90;;;;;;4895099;29;20397;-82
2022/08/24 09:20:15;;;;;;;5.78;5.28;;;20.50;99.90;;;;;;4882462;29;20520;-82
2022/08/24 09:22:47;;;;;;;7.72;4.13;;;20.60;99.90;;;;;;4890457;29;20114;-83
2022/08/24 09:25:23;;;;;;;4.68;4.22;;;20.90;99.90;;;;;;4870963;29;20048;-82
2022/08/24 09:28:36;;;;;;;4.40;4.00;;;20.90;99.90;;;;;;4894440;29;20501;-82
2022/08/24 09:31:29;;;;;;;4.22;3.70;;;21.00;99.90;;;;;;4878399;29;20561;-82
2022/08/24 09:34:07;;;;;;;6.00;4.05;;;20.80;99.90;;;;;;4877804;29;20059;-85
2022/08/24 09:36:38;;;;;;;4.75;4.35;;;21.00;99.90;;;;;;4916344;29;20051;-84
2022/08/24 09:39:44;;;;;;;7.07;4.43;;;20.90;99.90;;;;;;4878708;29;20413;-82
2022/08/24 09:42:27;;;;;;;6.22;3.50;;;20.90;99.90;;;;;;4838233;29;20076;-82
2022/08/24 09:45:16;;;;;;;4.03;3.50;;;20.90;99.90;;;;;;4877287;29;20052;-82
2022/08/24 09:48:25;;;;;;;4.03;3.65;;;20.90;99.90;;;;;;4860339;29;20059;-85
2022/08/24 09:51:15;;;;;;;3.72;3.42;;;21.10;99.90;;;;;;4892980;29;20095;-83
2022/08/24 09:53:48;;;;;;;3.60;3.30;;;21.30;99.90;;;;;;4897374;29;20059;-82
2022/08/24 09:56:31;;;;;;;5.05;3.13;;;21.50;99.90;;;;;;4914838;29;20493;-82
2022/08/24 09:59:19;;;;;;;4.30;3.90;;;21.40;99.90;;;;;;4851703;29;20056;-82
2022/08/24 10:01:49;;;;;;;20.52;5.53;;;21.30;99.90;;;;;;4888530;29;20055;-83
2022/08/24 10:04:27;;;;;;;3.83;3.53;;;21.30;99.90;;;;;;4882808;29;20051;-82
2022/08/24 10:07:09;;;;;;;4.50;3.88;;;21.40;99.90;;;;;;4911813;29;20052;-82
2022/08/24 10:09:49;;;;;;;3.72;3.42;;;21.40;99.90;;;;;;4917499;29;20052;-81
2022/08/24 10:12:32;;;;;;;3.67;3.35;;;21.50;99.90;;;;;;4903619;29;20056;-83
2022/08/24 10:16:06;;;;;;;5.75;3.72;;;21.40;99.90;;;;;;4892670;29;20056;-85
2022/08/24 10:18:47;;;;;;;4.40;4.10;;;21.40;99.90;;;;;;4883705;29;20070;-82
2022/08/24 10:21:30;;;;;;;4.18;3.40;;;21.70;99.90;;;;;;4908072;29;20063;-83
2022/08/24 10:24:36;;;;;;;4.63;3.60;;;21.70;99.90;;;;;;4892099;29;20078;-85
2022/08/24 10:27:25;;;;;;;3.08;2.88;;;21.80;99.90;;;;;;4815381;29;20046;-84
2022/08/24 10:30:26;;;;;;;3.08;2.85;;;22.00;99.90;;;;;;4904105;29;20063;-84
2022/08/24 10:33:18;;;;;;;6.68;3.65;;;22.00;99.90;;;;;;4890613;29;20125;-84
2022/08/24 10:36:23;;;;;;;3.05;2.58;;;22.20;99.90;;;;;;4885578;29;20052;-83
2022/08/24 10:45:42;;;;;;;2.72;2.30;;;22.10;99.90;;;;;;4892724;29;20039;-82
2022/08/24 10:48:35;;;;;;;4.15;2.75;;;22.20;99.90;;;;;;4888944;29;20060;-81
2022/08/24 10:51:27;;;;;;;2.45;2.25;;;22.40;99.90;;;;;;4889613;29;20067;-86
2022/08/24 10:53:55;;;;;;;5.38;2.50;;;22.70;99.90;;;;;;4914675;29;20037;-83
2022/08/24 10:56:40;;;;;;;3.47;2.42;;;22.80;99.90;;;;;;4918615;29;20048;-82
2022/08/24 10:59:27;;;;;;;5.57;4.03;;;22.90;99.90;;;;;;4916162;29;20055;-82
2022/08/24 11:02:11;;;;;;;6.15;3.50;;;23.00;99.90;;;;;;4901765;29;20882;-82
2022/08/24 11:04:40;;;;;;;3.15;2.58;;;23.00;99.90;;;;;;4901367;29;20063;-85
2022/08/24 11:07:16;;;;;;;5.82;4.03;;;23.00;99.90;;;;;;4885059;29;20044;-85
2022/08/24 11:10:00;;;;;;;2.97;2.78;;;22.80;99.90;;;;;;4884908;29;20036;-83
2022/08/24 11:12:43;;;;;;;3.40;3.17;;;23.00;99.90;;;;;;4918453;29;20719;-83
2022/08/24 11:15:22;;;;;;;3.75;2.88;;;23.00;99.90;;;;;;4900149;29;20051;-83
2022/08/24 11:18:01;;;;;;;3.22;2.92;;;23.20;99.90;;;;;;4900603;29;20052;-83
2022/08/24 11:20:33;;;;;;;3.53;3.22;;;23.30;99.90;;;;;;4901047;29;20055;-80
2022/08/24 11:23:06;;;;;;;3.13;2.83;;;23.40;99.90;;;;;;4899874;29;20055;-78
2022/08/24 11:25:37;;;;;;;3.67;3.10;;;23.30;99.90;;;;;;4915623;29;20048;-77
2022/08/24 11:28:18;;;;;;;2.90;2.70;;;23.10;99.90;;;;;;4919649;29;20047;-76
2022/08/24 11:30:47;;;;;;;2.63;2.42;;;23.00;99.90;;;;;;4913633;29;20801;-83
2022/08/24 11:33:31;;;;;;;2.88;2.67;;;23.00;99.90;;;;;;4884280;29;20055;-83
2022/08/24 11:36:00;;;;;;;2.53;2.33;;;23.20;99.90;;;;;;4885370;29;20071;-83
2022/08/24 11:38:31;;;;;;;3.38;3.03;;;23.20;99.90;;;;;;4900147;29;20048;-83
2022/08/24 11:41:11;;;;;;;10.48;2.58;;;23.30;99.90;;;;;;4917852;29;20048;-83
2022/08/24 11:44:06;;;;;;;4.85;3.45;;;23.50;99.90;;;;;;4894062;29;20053;-82
2022/08/24 11:46:52;;;;;;;4.35;3.95;;;23.30;99.90;;;;;;4886578;29;20067;-82
2022/08/24 11:49:32;;;;;;;4.82;2.58;;;23.10;99.90;;;;;;4905020;29;20045;-83
2022/08/24 11:52:26;;;;;;;2.70;2.50;;;23.00;99.90;;;;;;4883147;29;20044;-82
2022/08/24 11:55:02;;;;;;;2.10;2.00;;;22.80;99.90;;;;;;4914134;29;20754;-82
2022/08/24 11:57:52;;;;;;;3.10;2.90;;;22.60;99.90;;;;;;4914618;29;20063;-81
2022/08/24 12:00:23;;;;;;;2.42;2.22;;;22.60;99.90;;;;;;4916674;29;20048;-82
2022/08/24 12:03:10;;;;;;;2.85;2.65;;;22.90;99.90;;;;;;4916592;29;20052;-83
2022/08/24 12:06:05;;;;;;;4.13;2.75;;;23.10;99.90;;;;;;4918467;29;20047;-82
2022/08/24 12:09:02;;;;;;;2.90;2.70;;;23.20;99.90;;;;;;4883093;29;20496;-84
2022/08/24 12:11:49;;;;;;;2.67;2.47;;;23.50;99.90;;;;;;4894904;29;20800;-82
2022/08/24 12:14:44;;;;;;;2.55;2.20;;;23.70;99.90;;;;;;4883817;29;20417;-84
2022/08/24 12:17:23;;;;;;;2.53;2.33;;;23.90;99.90;;;;;;4902554;29;20068;-82
2022/08/24 12:19:58;;;;;;;3.28;2.65;;;23.90;99.90;;;;;;4903870;29;20060;-83
2022/08/24 12:22:28;;;;;;;2.20;2.10;;;24.00;99.90;;;;;;4876829;29;20048;-82
2022/08/24 12:25:00;;;;;;;2.75;2.60;;;24.10;99.90;;;;;;4879778;29;20044;-83
2022/08/24 12:27:32;;;;;;;2.88;2.15;;;24.00;99.90;;;;;;4890073;29;20055;-83
2022/08/24 12:30:13;;;;;;;2.65;2.55;;;23.80;99.90;;;;;;4897953;29;20056;-82
2022/08/24 12:32:55;;;;;;;4.05;3.08;;;23.70;99.90;;;;;;4886180;29;20394;-82
2022/08/24 12:35:38;;;;;;;2.92;2.72;;;23.60;99.90;;;;;;4893079;29;20076;-83
2022/08/24 12:38:12;;;;;;;3.15;2.40;;;23.60;99.90;;;;;;4894228;29;20417;-83
2022/08/24 12:40:46;;;;;;;6.80;3.38;;;23.30;99.90;;;;;;4896758;29;20498;-83
2022/08/24 12:43:34;;;;;;;2.85;2.40;;;23.40;99.90;;;;;;4896984;29;20055;-81
2022/08/24 12:46:05;;;;;;;2.88;2.30;;;23.40;99.90;;;;;;4889761;29;20055;-81
2022/08/24 12:48:57;;;;;;;2.47;2.28;;;23.50;99.90;;;;;;4896702;29;20052;-82
2022/08/24 12:52:03;;;;;;;3.45;2.95;;;23.30;99.90;;;;;;4881356;29;20490;-82
2022/08/24 12:55:00;;;;;;;3.85;3.03;;;23.30;99.90;;;;;;4885942;29;20056;-82
2022/08/24 12:57:33;;;;;;;3.10;2.38;;;23.20;99.90;;;;;;4873842;29;20406;-83
2022/08/24 13:00:08;;;;;;;5.85;2.75;;;23.40;99.90;;;;;;4886742;29;20053;-82
2022/08/24 13:02:40;;;;;;;2.85;2.33;;;23.50;99.90;;;;;;4877249;29;20515;-83
2022/08/24 13:05:19;;;;;;;2.58;2.28;;;23.40;99.90;;;;;;4859453;29;20057;-83
2022/08/24 13:07:50;;;;;;;3.40;2.38;;;23.20;99.90;;;;;;4862143;29;20049;-83
2022/08/24 13:10:18;;;;;;;3.55;2.45;;;23.30;99.90;;;;;;4865942;29;20037;-84
2022/08/24 13:13:07;;;;;;;23.88;2.88;;;23.60;99.90;;;;;;4877854;29;20060;-84
2022/08/24 13:15:35;;;;;;;3.67;2.88;;;23.80;99.90;;;;;;4896973;29;20049;-84
2022/08/24 13:18:05;;;;;;;2.25;2.10;;;23.70;99.90;;;;;;4872218;29;20046;-83
2022/08/24 13:20:34;;;;;;;2.90;2.33;;;23.50;99.90;;;;;;4871509;29;20060;-83
2022/08/24 13:23:11;;;;;;;2.05;1.85;;;23.30;99.90;;;;;;4865415;29;20061;-83
2022/08/24 13:26:16;;;;;;;3.13;2.58;;;23.10;99.90;;;;;;4880795;29;20494;-84
2022/08/24 13:28:51;;;;;;;2.00;1.88;;;22.90;99.90;;;;;;4885606;29;20056;-83
2022/08/24 13:31:31;;;;;;;2.10;1.92;;;22.90;99.90;;;;;;4891750;29;20503;-86
2022/08/24 13:34:13;;;;;;;4.28;2.17;;;23.20;99.90;;;;;;4880278;29;20048;-86
2022/08/24 13:37:05;;;;;;;3.03;2.42;;;23.50;99.90;;;;;;4893979;29;20055;-84
2022/08/24 13:40:11;;;;;;;2.22;2.03;;;23.70;99.90;;;;;;4870463;29;20518;-85
2022/08/24 13:43:01;;;;;;;2.80;1.85;;;24.00;99.90;;;;;;4880117;29;20052;-85
2022/08/24 13:45:32;;;;;;;2.05;1.88;;;24.10;99.90;;;;;;4886791;29;20060;-85
2022/08/24 13:48:06;;;;;;;2.05;1.88;;;24.10;99.90;;;;;;4883617;29;20411;-84
2022/08/24 13:51:04;;;;;;;2.22;2.03;;;24.10;99.90;;;;;;4883464;29;20514;-88
2022/08/24 13:53:55;;;;;;;2.92;2.30;;;24.00;99.90;;;;;;4858297;29;20060;-84
2022/08/24 13:56:24;;;;;;;8.20;1.83;;;24.00;99.90;;;;;;4893689;29;20045;-87
2022/08/24 13:59:29;;;;;;;5.55;2.97;;;24.00;99.90;;;;;;4858889;29;20059;-84
2022/08/24 14:02:15;;;;;;;1.98;1.77;;;24.10;99.90;;;;;;4837848;29;20044;-84
2022/08/24 14:04:55;;;;;;;2.80;1.88;;;24.00;99.90;;;;;;4851540;29;20052;-84
2022/08/24 14:07:27;;;;;;;3.45;2.22;;;23.90;99.90;;;;;;4867348;29;20048;-84
2022/08/24 14:10:41;;;;;;;1.70;1.60;;;23.90;99.90;;;;;;4864889;29;20056;-86
2022/08/24 14:13:56;;;;;;;1.77;1.67;;;24.00;99.90;;;;;;4846217;29;20054;-85
2022/08/24 14:19:53;;;;;;;3.47;2.90;;;24.10;99.90;;;;;;4866030;29;20384;-85
2022/08/24 14:22:34;;;;;;;3.47;2.30;;;24.20;99.90;;;;;;4864732;29;20053;-84
2022/08/24 14:25:16;;;;;;;1.77;1.67;;;24.30;99.90;;;;;;4864500;29;20057;-84
2022/08/24 14:28:03;;;;;;;1.90;1.80;;;24.30;99.90;;;;;;4865020;29;20061;-84
2022/08/24 14:30:32;;;;;;;2.45;2.05;;;24.20;99.90;;;;;;4839776;29;20049;-83
2022/08/24 14:33:00;;;;;;;5.10;2.10;;;23.80;99.90;;;;;;4864738;29;20377;-84
2022/08/24 14:35:31;;;;;;;2.63;2.42;;;23.60;99.90;;;;;;4864753;29;20055;-85
2022/08/24 14:38:10;;;;;;;;;;;23.70;99.90;;;;;;4849065;29;20053;-84
2022/08/24 14:41:04;;;;;;;1.05;1.00;;;23.80;99.90;;;;;;4853692;29;19930;-84
2022/08/24 14:44:05;;;;;;;1.98;1.88;;;23.50;99.90;;;;;;4879034;29;20076;-85
2022/08/24 14:46:37;;;;;;;;;;;23.40;99.90;;;;;;4864489;29;20762;-84
2022/08/24 14:49:27;;;;;;;2.85;1.75;;;23.60;99.90;;;;;;4885736;29;19928;-85
2022/08/24 14:52:24;;;;;;;4.18;1.70;;;24.00;99.90;;;;;;4862843;29;20061;-78
2022/08/24 14:55:28;;;;;;;2.05;1.95;;;24.20;99.90;;;;;;4881870;29;20670;-78
2022/08/24 14:58:19;;;;;;;1.67;1.52;;;24.30;99.90;;;;;;4878331;29;20057;-84
2022/08/24 15:01:06;;;;;;;2.15;1.55;;;24.30;99.90;;;;;;4866290;29;20403;-84
2022/08/24 15:03:59;;;;;;;1.23;1.17;;;24.30;99.90;;;;;;4848398;29;20052;-85
2022/08/24 15:06:47;;;;;;;2.28;1.48;;;24.20;99.90;;;;;;4863723;29;20045;-85
2022/08/24 15:09:37;;;;;;;2.38;1.73;;;23.80;99.90;;;;;;4847739;29;20057;-85
2022/08/24 15:21:50;;;;;;;1.63;1.52;;;23.90;99.90;;;;;;4860042;29;20047;-81
2022/08/24 15:24:49;;;;;;;1.75;1.65;;;24.10;99.90;;;;;;4910873;29;20517;-81
2022/08/24 15:27:44;;;;;;;1.95;1.60;;;24.10;99.90;;;;;;4882776;29;20458;-82
2022/08/24 15:30:31;;;;;;;1.75;1.65;;;24.20;99.90;;;;;;4897047;29;20052;-82
2022/08/24 15:33:13;;;;;;;3.22;1.92;;;24.30;99.90;;;;;;4879812;29;20057;-81
2022/08/24 15:35:49;;;;;;;1.58;1.30;;;24.40;99.90;;;;;;4898315;29;20606;-83
2022/08/24 15:38:22;;;;;;;2.15;1.55;;;24.40;99.90;;;;;;4896290;29;20493;-82
2022/08/24 15:41:02;;;;;;;2.35;1.30;;;24.40;99.90;;;;;;4888530;29;20056;-82